Time;durP1;ratioP1;P1;durP2;ratioP2;P2;SDS_P1;SDS_P2;PMS_P1;PMS_P2;Temp;Humidity;BMP_temperature;BMP_pressure;BME280_temperature;BME280_humidity;BME280_pressure;Samples;Min_cycle;Max_cycle;Signal;HPM_P1;HPM_P2
2021/11/21 00:01:29;;;;;;;0.65;0.55;;;17.40;70.90;;;;;;5018697;28;95306;-63
2021/11/21 00:04:01;;;;;;;1.50;0.75;;;17.40;70.80;;;;;;5018761;28;96386;-63
2021/11/21 00:06:33;;;;;;;1.15;0.73;;;17.40;70.80;;;;;;5017728;28;95782;-62
2021/11/21 00:09:05;;;;;;;1.55;0.77;;;17.40;70.80;;;;;;5018412;28;94930;-62
2021/11/21 00:11:38;;;;;;;0.60;0.60;;;17.50;70.80;;;;;;5018116;28;95263;-61
2021/11/21 00:14:12;;;;;;;1.55;0.60;;;17.50;70.70;;;;;;5000856;28;96461;-61
2021/11/21 00:16:47;;;;;;;0.82;0.50;;;17.50;70.60;;;;;;5017795;28;95806;-61
2021/11/21 00:19:18;;;;;;;1.00;0.90;;;17.50;70.60;;;;;;5017958;28;95004;-61
2021/11/21 00:21:55;;;;;;;2.00;0.47;;;17.60;70.60;;;;;;5018529;28;95147;-61
2021/11/21 00:24:29;;;;;;;3.83;0.90;;;17.60;70.50;;;;;;5017436;28;96415;-62
2021/11/21 00:27:02;;;;;;;2.28;0.60;;;17.60;70.50;;;;;;5017404;28;97822;-61
2021/11/21 00:29:36;;;;;;;1.15;0.50;;;17.60;70.40;;;;;;5017827;28;94946;-61
2021/11/21 00:32:11;;;;;;;0.77;0.40;;;17.60;70.30;;;;;;5017876;28;95345;-62
2021/11/21 00:34:45;;;;;;;1.20;0.70;;;17.70;70.30;;;;;;5017340;28;96346;-62
2021/11/21 00:37:19;;;;;;;0.80;0.55;;;17.70;70.30;;;;;;5015575;28;95496;-61
2021/11/21 00:39:51;;;;;;;0.52;0.52;;;17.70;70.30;;;;;;5017452;28;94925;-61
2021/11/21 00:42:24;;;;;;;1.00;0.65;;;17.80;70.30;;;;;;5018147;28;95081;-62
2021/11/21 00:44:57;;;;;;;0.65;0.43;;;17.80;70.20;;;;;;5017364;28;96467;-61
2021/11/21 00:47:30;;;;;;;4.55;1.02;;;17.80;70.90;;;;;;5018275;28;95739;-62
2021/11/21 00:50:03;;;;;;;0.50;0.47;;;17.90;70.20;;;;;;5018610;28;94955;-62
2021/11/21 00:52:38;;;;;;;1.65;0.43;;;17.90;70.10;;;;;;5018891;28;95060;-63
2021/11/21 00:55:15;;;;;;;0.90;0.50;;;17.90;70.10;;;;;;5018388;28;96383;-62
2021/11/21 00:57:47;;;;;;;0.40;0.40;;;17.90;70.10;;;;;;5018181;28;95144;-63
2021/11/21 01:00:19;;;;;;;1.05;0.50;;;18.00;70.70;;;;;;4999600;28;95037;-63
2021/11/21 01:02:51;;;;;;;0.93;0.50;;;18.00;70.00;;;;;;5018183;28;95248;-63
2021/11/21 01:05:24;;;;;;;0.68;0.52;;;18.00;70.00;;;;;;5018029;28;96384;-63
2021/11/21 01:07:55;;;;;;;0.50;0.40;;;18.10;70.00;;;;;;5017491;28;95808;-64
2021/11/21 01:10:29;;;;;;;1.60;0.50;;;18.10;69.90;;;;;;5017323;28;95198;-63
2021/11/21 01:13:02;;;;;;;0.55;0.40;;;18.10;69.90;;;;;;4983021;28;95675;-63
2021/11/21 01:15:36;;;;;;;0.55;0.40;;;18.20;69.60;;;;;;5017011;28;96082;-63
2021/11/21 01:18:10;;;;;;;0.95;0.50;;;18.20;69.70;;;;;;5017212;28;95617;-63
2021/11/21 01:20:45;;;;;;;4.28;0.82;;;18.20;69.70;;;;;;5017515;28;94914;-63
2021/11/21 01:23:18;;;;;;;13.80;1.25;;;18.20;69.70;;;;;;5017515;28;95192;-63
2021/11/21 01:25:51;;;;;;;1.77;0.50;;;18.30;69.70;;;;;;5016973;28;96422;-63
2021/11/21 01:28:25;;;;;;;0.93;0.40;;;18.30;69.60;;;;;;5016752;28;95502;-63
2021/11/21 01:30:59;;;;;;;1.98;0.70;;;18.30;69.60;;;;;;5016866;28;94974;-62
2021/11/21 01:33:33;;;;;;;1.85;0.43;;;18.40;69.60;;;;;;5000662;28;95242;-61
2021/11/21 01:36:06;;;;;;;2.25;0.57;;;18.40;69.50;;;;;;5006326;28;96724;-63
2021/11/21 01:38:41;;;;;;;0.95;0.82;;;18.40;70.10;;;;;;5014163;28;95425;-63
2021/11/21 01:41:15;;;;;;;1.40;0.50;;;18.50;69.50;;;;;;5017126;28;94909;-63
2021/11/21 01:43:47;;;;;;;1.65;0.50;;;18.50;69.40;;;;;;5016992;28;95303;-63
2021/11/21 01:46:17;;;;;;;;;;;18.50;69.40;;;;;;5018262;28;96493;-63
2021/11/21 01:48:49;;;;;;;2.67;0.77;;;18.60;69.40;;;;;;5019024;28;94900;-64
2021/11/21 01:51:23;;;;;;;0.47;0.38;;;18.60;69.40;;;;;;5018059;28;95045;-63
2021/11/21 01:53:57;;;;;;;2.20;0.50;;;18.70;69.30;;;;;;5020860;28;95282;-63
2021/11/21 01:56:31;;;;;;;1.15;0.60;;;18.70;69.30;;;;;;5021327;28;96662;-63
2021/11/21 01:59:09;;;;;;;1.13;0.50;;;18.70;69.30;;;;;;5002780;28;95821;-61
2021/11/21 02:01:41;;;;;;;0.38;0.22;;;18.70;69.30;;;;;;5020771;28;94913;-63
2021/11/21 02:04:12;;;;;;;2.05;0.77;;;18.80;69.30;;;;;;5020762;28;95319;-63
2021/11/21 02:06:43;;;;;;;0.55;0.45;;;18.80;69.20;;;;;;5020024;28;96460;-63
2021/11/21 02:09:19;;;;;;;1.70;0.43;;;18.90;69.10;;;;;;5019547;28;95891;-63
2021/11/21 02:11:52;;;;;;;1.02;0.70;;;18.90;69.10;;;;;;5020516;28;94919;-64
2021/11/21 02:14:24;;;;;;;2.00;0.70;;;18.90;69.20;;;;;;5020526;28;95175;-63
2021/11/21 02:16:58;;;;;;;6.22;0.70;;;18.90;69.20;;;;;;5001201;28;96602;-63
2021/11/21 02:19:30;;;;;;;0.68;0.50;;;18.90;69.50;;;;;;5019463;28;95672;-61
2021/11/21 02:22:02;;;;;;;1.15;0.60;;;18.80;69.60;;;;;;5001477;28;95059;-63
2021/11/21 02:24:35;;;;;;;2.25;0.70;;;18.80;69.80;;;;;;5020190;28;95274;-63
2021/11/21 02:27:07;;;;;;;5.45;0.60;;;18.80;69.80;;;;;;5000478;28;95428;-63
2021/11/21 02:29:40;;;;;;;0.88;0.60;;;18.70;69.90;;;;;;5019374;28;95779;-63
2021/11/21 02:32:13;;;;;;;1.40;0.60;;;18.80;70.00;;;;;;5019543;28;94930;-63
2021/11/21 02:34:46;;;;;;;3.88;0.70;;;18.80;69.80;;;;;;5019110;28;95394;-63
2021/11/21 02:37:19;;;;;;;2.83;0.60;;;18.70;69.80;;;;;;5015429;28;96466;-62
2021/11/21 02:39:53;;;;;;;2.15;0.70;;;18.70;69.70;;;;;;5019595;28;95762;-63
2021/11/21 02:42:31;;;;;;;2.20;0.70;;;18.80;69.70;;;;;;5019846;28;94999;-61
2021/11/21 02:45:10;;;;;;;1.65;0.52;;;18.80;68.10;;;;;;5019780;28;95299;-63
2021/11/21 02:47:43;;;;;;;1.02;0.60;;;18.80;69.60;;;;;;5020242;28;96415;-63
2021/11/21 02:50:18;;;;;;;2.38;0.70;;;18.80;69.50;;;;;;5001568;28;96217;-63
2021/11/21 02:52:52;;;;;;;4.82;0.70;;;18.80;69.50;;;;;;5020690;28;95028;-63
2021/11/21 02:55:32;;;;;;;0.70;0.50;;;18.80;69.30;;;;;;5021175;28;95179;-63
2021/11/21 02:58:06;;;;;;;1.20;0.50;;;18.80;69.30;;;;;;5019585;28;96461;-64
2021/11/21 03:00:40;;;;;;;4.57;0.70;;;18.80;69.20;;;;;;5001291;28;96155;-62
2021/11/21 03:03:17;;;;;;;1.77;0.43;;;18.80;68.90;;;;;;5020234;28;94922;-64
2021/11/21 03:05:48;;;;;;;1.25;0.57;;;18.90;69.10;;;;;;5019924;28;95325;-64
2021/11/21 03:08:19;;;;;;;1.75;0.70;;;18.90;69.50;;;;;;5019253;28;96020;-64
2021/11/21 03:10:53;;;;;;;0.63;0.63;;;18.90;69.00;;;;;;5018280;28;95904;-62
2021/11/21 03:13:25;;;;;;;1.60;0.63;;;18.90;69.00;;;;;;5019177;28;94894;-62
2021/11/21 03:15:58;;;;;;;0.95;0.63;;;18.90;69.60;;;;;;5002066;28;95186;-60
2021/11/21 03:18:32;;;;;;;1.30;0.60;;;18.90;68.80;;;;;;5018908;28;96392;-61
2021/11/21 03:21:06;;;;;;;1.52;0.73;;;18.90;68.80;;;;;;5018419;28;96217;-60
2021/11/21 03:23:41;;;;;;;0.57;0.40;;;19.00;68.70;;;;;;5019337;28;94940;-62
2021/11/21 03:26:13;;;;;;;3.85;0.82;;;19.00;68.60;;;;;;5019226;28;95294;-62
2021/11/21 03:28:48;;;;;;;2.05;0.63;;;19.00;68.60;;;;;;5018816;28;96607;-62
2021/11/21 03:31:20;;;;;;;2.28;0.50;;;19.00;68.60;;;;;;5018127;28;95928;-62
2021/11/21 03:33:52;;;;;;;2.25;1.08;;;19.00;68.50;;;;;;5018769;28;94911;-61
2021/11/21 03:36:25;;;;;;;1.67;0.70;;;19.00;68.50;;;;;;5016163;28;95382;-61
2021/11/21 03:38:58;;;;;;;1.23;0.70;;;19.00;68.40;;;;;;5016683;28;96405;-61
2021/11/21 03:41:31;;;;;;;2.30;0.70;;;19.00;68.30;;;;;;5018414;28;95776;-62
2021/11/21 03:44:06;;;;;;;1.60;0.63;;;19.00;68.30;;;;;;5018443;28;94937;-62
2021/11/21 03:46:40;;;;;;;1.15;0.63;;;19.10;68.30;;;;;;5020061;28;95125;-62
2021/11/21 03:49:16;;;;;;;4.85;0.80;;;19.20;67.80;;;;;;5019606;28;96467;-63
2021/11/21 03:51:49;;;;;;;1.17;0.52;;;19.20;67.60;;;;;;5019551;28;95802;-63
2021/11/21 03:54:23;;;;;;;2.40;0.77;;;19.30;67.10;;;;;;5002795;28;95075;-62
2021/11/21 03:56:56;;;;;;;1.23;0.80;;;19.30;67.10;;;;;;5019580;28;94902;-62
2021/11/21 03:59:28;;;;;;;2.92;0.80;;;19.30;66.70;;;;;;5018136;28;96837;-61
2021/11/21 04:02:00;;;;;;;6.30;1.13;;;19.30;66.40;;;;;;5018118;28;95827;-61
2021/11/21 04:04:34;;;;;;;2.22;1.00;;;19.30;65.50;;;;;;5018886;28;94926;-62
2021/11/21 04:07:06;;;;;;;2.13;0.82;;;19.40;66.10;;;;;;5018449;28;95410;-60
2021/11/21 04:09:44;;;;;;;2.38;1.05;;;19.30;65.80;;;;;;5001094;28;95992;-60
2021/11/21 04:12:18;;;;;;;1.90;1.00;;;19.40;66.20;;;;;;5017687;28;95774;-58
2021/11/21 04:14:51;;;;;;;2.88;1.00;;;19.60;65.80;;;;;;5017371;28;94995;-59
2021/11/21 04:17:24;;;;;;;0.98;0.73;;;19.70;65.50;;;;;;5001340;28;95177;-59
2021/11/21 04:20:01;;;;;;;2.53;0.85;;;19.80;65.70;;;;;;5017666;28;96756;-59
2021/11/21 04:22:35;;;;;;;2.13;1.00;;;20.00;65.20;;;;;;4985343;28;95844;-59
2021/11/21 04:25:09;;;;;;;1.33;0.60;;;20.00;64.00;;;;;;5000975;28;94966;-61
2021/11/21 04:27:44;;;;;;;2.97;1.02;;;20.10;64.80;;;;;;5018175;28;95167;-62
2021/11/21 04:30:18;;;;;;;5.40;1.00;;;20.10;64.70;;;;;;5000299;28;96463;-56
2021/11/21 04:32:55;;;;;;;2.05;0.98;;;20.20;65.00;;;;;;5017100;28;95482;-58
2021/11/21 04:35:34;;;;;;;2.38;0.90;;;20.40;64.70;;;;;;5017270;28;95014;-58
2021/11/21 04:38:17;;;;;;;2.03;0.65;;;20.50;64.80;;;;;;5013850;28;95103;-56
2021/11/21 04:40:51;;;;;;;2.28;0.70;;;20.50;62.60;;;;;;5017737;28;96587;-60
2021/11/21 04:43:24;;;;;;;2.30;0.70;;;20.40;62.30;;;;;;5017948;28;95758;-59
2021/11/21 04:45:56;;;;;;;3.45;0.93;;;20.40;62.70;;;;;;5018754;28;94972;-59
2021/11/21 04:48:28;;;;;;;1.85;0.82;;;20.40;62.00;;;;;;5019053;28;95178;-57
2021/11/21 04:51:02;;;;;;;5.03;1.15;;;20.30;61.80;;;;;;5017738;28;96165;-62
2021/11/21 04:53:36;;;;;;;3.13;1.00;;;20.20;61.40;;;;;;5018104;28;95804;-60
2021/11/21 04:56:08;;;;;;;3.92;1.02;;;20.30;61.20;;;;;;5018853;28;95020;-62
2021/11/21 04:58:41;;;;;;;2.55;1.20;;;20.20;61.10;;;;;;5018341;28;95295;-62
2021/11/21 05:01:13;;;;;;;5.50;1.73;;;20.30;61.00;;;;;;5018615;28;96454;-62
2021/11/21 05:03:47;;;;;;;3.88;1.15;;;20.30;60.80;;;;;;5018861;28;95810;-60
2021/11/21 05:06:20;;;;;;;3.45;0.90;;;20.20;60.20;;;;;;5017955;28;94896;-62
2021/11/21 05:08:55;;;;;;;4.90;1.15;;;20.20;58.70;;;;;;5018211;28;95228;-61
2021/11/21 05:11:27;;;;;;;2.75;0.82;;;20.20;59.80;;;;;;5018246;28;95278;-61
2021/11/21 05:14:00;;;;;;;4.38;1.00;;;20.20;59.80;;;;;;5017371;28;95785;-61
2021/11/21 05:16:36;;;;;;;2.03;1.00;;;20.20;59.70;;;;;;5017227;28;94923;-60
2021/11/21 05:19:09;;;;;;;3.08;1.13;;;20.20;59.70;;;;;;5017380;28;95373;-61
2021/11/21 05:21:42;;;;;;;5.82;1.42;;;20.30;59.80;;;;;;5017021;28;96256;-60
2021/11/21 05:24:19;;;;;;;3.95;1.25;;;20.30;59.60;;;;;;5017327;28;95748;-61
2021/11/21 05:26:52;;;;;;;7.40;1.20;;;20.30;59.70;;;;;;5017540;28;94952;-61
2021/11/21 05:29:24;;;;;;;5.75;1.98;;;20.20;59.80;;;;;;5021363;28;95085;-60
2021/11/21 05:31:58;;;;;;;5.63;1.50;;;20.20;59.80;;;;;;5020368;28;96409;-60
2021/11/21 05:34:30;;;;;;;6.63;2.97;;;20.30;59.90;;;;;;5002915;28;95851;-60
2021/11/21 05:37:04;;;;;;;9.25;4.28;;;20.30;60.10;;;;;;5019728;28;95092;-59
2021/11/21 05:39:37;;;;;;;10.60;4.93;;;20.30;60.40;;;;;;5019121;28;95371;-55
2021/11/21 05:42:09;;;;;;;10.55;3.80;;;20.40;60.40;;;;;;5019993;28;96421;-57
2021/11/21 05:44:41;;;;;;;10.23;4.22;;;20.50;60.70;;;;;;5019676;28;95798;-59
2021/11/21 05:47:17;;;;;;;9.07;4.25;;;20.50;60.60;;;;;;5021088;28;94958;-56
2021/11/21 05:49:52;;;;;;;7.30;3.85;;;20.60;60.70;;;;;;5021461;28;95284;-57
2021/11/21 05:52:27;;;;;;;8.48;3.10;;;20.60;60.60;;;;;;5020806;28;96371;-55
2021/11/21 05:55:10;;;;;;;5.85;3.35;;;20.60;60.50;;;;;;5020878;28;95560;-56
2021/11/21 05:57:45;;;;;;;8.15;3.65;;;20.60;60.50;;;;;;5020442;28;94946;-58
2021/11/21 06:00:23;;;;;;;5.32;2.72;;;20.70;60.80;;;;;;5020499;28;95304;-59
2021/11/21 06:02:59;;;;;;;8.23;2.53;;;20.70;60.70;;;;;;5019941;28;96407;-57
2021/11/21 06:05:35;;;;;;;5.40;2.75;;;20.70;60.70;;;;;;5002205;28;95867;-58
2021/11/21 06:08:10;;;;;;;6.10;2.80;;;20.70;61.00;;;;;;5020238;28;94936;-57
2021/11/21 06:10:45;;;;;;;6.35;2.88;;;20.70;60.90;;;;;;5019861;28;95356;-58
2021/11/21 06:13:21;;;;;;;7.30;3.15;;;20.70;61.00;;;;;;5019364;28;96407;-58
2021/11/21 06:15:57;;;;;;;3.40;2.30;;;20.70;61.10;;;;;;5019465;28;95747;-57
2021/11/21 06:18:34;;;;;;;3.95;2.75;;;20.70;61.10;;;;;;5003033;28;94986;-56
2021/11/21 06:24:27;;;;;;;5.65;2.55;;;20.70;61.40;;;;;;5018906;28;96445;-57
2021/11/21 06:27:00;;;;;;;6.30;2.80;;;20.70;61.30;;;;;;5001858;28;94969;-57
2021/11/21 06:29:34;;;;;;;5.88;2.65;;;20.70;61.30;;;;;;5019544;28;94951;-58
2021/11/21 06:32:07;;;;;;;5.75;2.28;;;20.70;61.50;;;;;;5020049;28;95185;-56
2021/11/21 06:34:39;;;;;;;4.30;2.33;;;20.70;61.10;;;;;;5017919;28;95410;-58
2021/11/21 06:37:12;;;;;;;5.75;2.05;;;20.80;61.10;;;;;;5017131;28;97087;-57
2021/11/21 06:39:44;;;;;;;6.72;2.35;;;20.70;61.40;;;;;;5018741;28;95043;-58
2021/11/21 06:42:15;;;;;;;4.47;2.10;;;20.70;61.50;;;;;;5001655;28;95467;-58
2021/11/21 06:44:50;;;;;;;5.57;2.22;;;20.70;61.40;;;;;;5019158;28;96488;-56
2021/11/21 06:47:24;;;;;;;3.67;2.00;;;20.80;61.70;;;;;;5020329;28;95775;-57
2021/11/21 06:50:01;;;;;;;4.30;2.17;;;20.80;61.60;;;;;;5020378;28;94958;-59
2021/11/21 06:52:34;;;;;;;4.60;2.28;;;20.80;61.70;;;;;;5020339;28;95303;-56
2021/11/21 06:55:14;;;;;;;6.47;1.92;;;20.80;61.70;;;;;;5019942;28;96410;-57
2021/11/21 06:57:49;;;;;;;3.90;2.10;;;20.80;61.70;;;;;;5001576;28;97830;-58
2021/11/21 07:00:20;;;;;;;6.07;2.45;;;20.80;61.70;;;;;;5019650;28;94931;-56
2021/11/21 07:02:51;;;;;;;5.22;2.05;;;20.80;61.90;;;;;;5019752;28;95161;-59
2021/11/21 07:05:23;;;;;;;2.03;1.30;;;20.80;62.10;;;;;;5019404;28;95891;-58
2021/11/21 07:07:57;;;;;;;6.38;2.05;;;20.80;62.00;;;;;;5018581;28;96435;-57
2021/11/21 07:10:30;;;;;;;3.38;1.60;;;20.80;62.20;;;;;;5018812;28;95073;-58
2021/11/21 07:13:04;;;;;;;4.93;1.65;;;20.80;62.20;;;;;;5019118;28;95324;-56
2021/11/21 07:15:37;;;;;;;5.85;1.48;;;20.80;62.40;;;;;;5018446;28;96399;-58
2021/11/21 07:18:11;;;;;;;3.50;2.13;;;20.80;62.40;;;;;;5018880;28;95775;-58
2021/11/21 07:20:44;;;;;;;4.95;2.10;;;20.80;62.40;;;;;;5019310;28;95204;-58
2021/11/21 07:23:19;;;;;;;3.17;1.60;;;20.80;62.50;;;;;;5018985;28;95343;-58
2021/11/21 07:25:51;;;;;;;2.33;1.30;;;20.80;62.50;;;;;;5018127;28;96655;-58
2021/11/21 07:28:23;;;;;;;3.50;1.90;;;20.80;62.60;;;;;;5018835;28;95481;-59
2021/11/21 07:30:55;;;;;;;5.10;1.90;;;20.80;62.60;;;;;;5018994;28;95058;-56
2021/11/21 07:33:33;;;;;;;3.88;1.48;;;20.80;62.60;;;;;;5019067;28;95164;-59
2021/11/21 07:36:08;;;;;;;3.83;1.38;;;20.80;62.70;;;;;;5009730;28;96340;-58
2021/11/21 07:38:42;;;;;;;3.53;1.42;;;20.80;62.70;;;;;;5017247;28;95441;-58
2021/11/21 07:41:16;;;;;;;2.60;1.77;;;20.80;62.70;;;;;;5018334;28;94959;-58
2021/11/21 07:43:51;;;;;;;2.78;2.13;;;20.80;62.70;;;;;;5018646;28;95312;-60
2021/11/21 07:46:25;;;;;;;4.55;2.10;;;20.80;62.80;;;;;;5019274;28;96058;-57
2021/11/21 07:48:57;;;;;;;4.05;1.75;;;20.90;63.00;;;;;;5001797;28;95944;-59
2021/11/21 07:51:30;;;;;;;2.75;1.80;;;20.90;61.60;;;;;;5018561;28;95014;-59
2021/11/21 07:54:01;;;;;;;3.55;2.40;;;20.90;63.10;;;;;;5019540;28;95193;-57
2021/11/21 07:56:34;;;;;;;5.03;2.50;;;20.90;63.20;;;;;;5019497;28;95472;-59
2021/11/21 07:59:10;;;;;;;3.53;2.40;;;20.90;63.30;;;;;;5017832;28;96040;-56
2021/11/21 08:01:42;;;;;;;4.40;2.25;;;20.90;63.50;;;;;;5018827;28;94960;-57
2021/11/21 08:04:15;;;;;;;2.92;2.17;;;20.90;63.50;;;;;;5019558;28;95117;-59
2021/11/21 08:06:49;;;;;;;7.53;3.30;;;20.90;63.80;;;;;;5018202;28;96381;-59
2021/11/21 08:09:21;;;;;;;4.75;2.58;;;20.90;63.90;;;;;;5017998;28;95500;-58
2021/11/21 08:11:55;;;;;;;3.85;2.72;;;20.90;64.20;;;;;;5018036;28;95010;-58
2021/11/21 08:14:29;;;;;;;6.22;2.90;;;20.90;64.30;;;;;;5018120;28;95351;-57
2021/11/21 08:17:01;;;;;;;4.70;2.72;;;21.00;64.30;;;;;;5018060;28;96365;-57
2021/11/21 08:19:35;;;;;;;4.68;2.70;;;21.00;64.50;;;;;;5017600;28;95928;-59
2021/11/21 08:22:08;;;;;;;9.20;3.05;;;21.00;64.50;;;;;;5018162;28;95006;-58
2021/11/21 08:24:39;;;;;;;5.88;2.80;;;20.90;64.50;;;;;;5017847;28;95300;-57
2021/11/21 08:27:14;;;;;;;4.63;2.47;;;20.90;64.90;;;;;;5017490;28;96607;-57
2021/11/21 08:29:50;;;;;;;3.35;2.55;;;20.90;65.00;;;;;;5017153;28;95913;-57
2021/11/21 08:32:25;;;;;;;5.38;3.30;;;20.90;65.30;;;;;;5018224;28;94993;-57
2021/11/21 08:35:02;;;;;;;6.07;3.55;;;20.90;65.40;;;;;;5017559;28;95319;-57
2021/11/21 08:37:37;;;;;;;4.05;2.70;;;20.90;65.70;;;;;;5015961;28;96397;-56
2021/11/21 08:40:12;;;;;;;6.53;3.15;;;20.80;65.60;;;;;;5017571;28;94903;-59
2021/11/21 08:42:45;;;;;;;3.47;3.13;;;20.80;65.80;;;;;;5017240;28;95028;-58
2021/11/21 08:45:16;;;;;;;3.38;2.30;;;20.80;65.80;;;;;;5017412;28;95304;-59
2021/11/21 08:47:48;;;;;;;4.25;2.35;;;20.80;64.60;;;;;;5018158;28;95663;-57
2021/11/21 08:50:20;;;;;;;5.07;3.03;;;20.80;66.10;;;;;;5018373;28;96011;-58
2021/11/21 08:52:53;;;;;;;2.97;2.22;;;20.80;65.90;;;;;;5018677;28;95056;-58
2021/11/21 08:55:28;;;;;;;5.15;2.95;;;20.70;66.10;;;;;;5018599;28;95316;-58
2021/11/21 08:58:01;;;;;;;4.63;2.35;;;20.60;66.00;;;;;;5017617;28;97096;-58
2021/11/21 09:00:32;;;;;;;3.13;2.08;;;20.60;66.20;;;;;;5017604;28;95140;-57
2021/11/21 09:03:08;;;;;;;3.40;2.17;;;20.50;66.30;;;;;;5024940;28;94911;-59
2021/11/21 09:05:40;;;;;;;9.60;2.28;;;20.50;66.40;;;;;;5024968;28;95141;-57
2021/11/21 09:08:16;;;;;;;3.60;1.90;;;20.50;66.40;;;;;;5006074;28;95611;-58
2021/11/21 09:10:48;;;;;;;4.63;2.53;;;20.40;66.10;;;;;;5023824;28;96447;-58
2021/11/21 09:13:21;;;;;;;7.35;2.20;;;20.30;65.60;;;;;;5023975;28;94948;-56
2021/11/21 09:15:56;;;;;;;7.15;2.92;;;20.30;65.70;;;;;;5024067;28;95335;-58
2021/11/21 09:18:31;;;;;;;6.30;2.22;;;20.30;65.50;;;;;;5023979;28;96413;-59
2021/11/21 09:21:04;;;;;;;7.53;2.28;;;20.20;65.40;;;;;;5023401;28;95796;-58
2021/11/21 09:23:37;;;;;;;10.27;2.58;;;20.20;65.10;;;;;;5023698;28;94951;-56
2021/11/21 09:26:11;;;;;;;5.50;1.75;;;20.10;65.00;;;;;;5023986;28;95416;-63
2021/11/21 09:28:48;;;;;;;6.72;1.80;;;19.90;62.80;;;;;;5023996;28;96447;-60
2021/11/21 09:31:21;;;;;;;7.13;1.70;;;19.50;62.40;;;;;;5023729;28;95586;-62
2021/11/21 09:33:54;;;;;;;4.47;1.63;;;19.30;62.80;;;;;;5023117;28;95116;-62
2021/11/21 09:36:27;;;;;;;7.38;1.98;;;19.10;63.10;;;;;;5022448;28;95227;-62
2021/11/21 09:39:25;;;;;;;7.82;2.03;;;19.00;63.50;;;;;;5022998;28;95557;-62
2021/11/21 09:41:59;;;;;;;7.30;1.50;;;18.80;63.90;;;;;;5023601;28;95803;-63
2021/11/21 09:44:31;;;;;;;4.38;1.42;;;18.70;64.00;;;;;;5023377;28;94950;-63
2021/11/21 09:47:03;;;;;;;7.78;1.60;;;18.70;63.90;;;;;;5025337;28;95219;-63
2021/11/21 09:49:35;;;;;;;20.27;2.65;;;18.60;63.90;;;;;;5024817;28;96394;-62
2021/11/21 09:52:14;;;;;;;7.78;2.00;;;18.60;64.10;;;;;;5024643;28;95669;-62
2021/11/21 09:54:46;;;;;;;4.80;1.83;;;18.50;64.50;;;;;;5024793;28;94926;-62
2021/11/21 09:57:22;;;;;;;5.75;1.85;;;18.40;64.40;;;;;;5006568;28;95311;-63
2021/11/21 09:59:58;;;;;;;5.40;1.83;;;18.30;65.00;;;;;;5023325;28;95857;-62
2021/11/21 10:02:38;;;;;;;6.65;1.75;;;18.20;65.50;;;;;;5020728;28;95105;-62
2021/11/21 10:05:24;;;;;;;3.35;1.85;;;18.00;65.50;;;;;;5007497;28;95068;-63
2021/11/21 10:08:12;;;;;;;7.13;2.25;;;18.00;66.20;;;;;;5024556;28;95112;-64
2021/11/21 10:11:10;;;;;;;4.32;1.50;;;18.00;66.30;;;;;;5023399;28;96370;-61
2021/11/21 10:13:48;;;;;;;7.05;2.15;;;17.90;66.40;;;;;;5020485;28;95844;-62
2021/11/21 10:16:34;;;;;;;5.85;1.92;;;17.80;66.60;;;;;;5019797;28;95005;-61
2021/11/21 10:19:12;;;;;;;6.63;2.03;;;17.80;67.20;;;;;;5020123;28;95297;-61
2021/11/21 10:21:53;;;;;;;9.75;2.95;;;17.80;67.10;;;;;;5019507;28;96420;-61
2021/11/21 10:24:31;;;;;;;5.55;2.53;;;17.80;67.00;;;;;;5019294;28;95419;-61
2021/11/21 10:27:11;;;;;;;8.30;2.47;;;17.70;67.10;;;;;;5019651;28;94914;-62
2021/11/21 10:29:45;;;;;;;4.50;2.17;;;17.50;67.20;;;;;;5019931;28;95175;-60
2021/11/21 10:32:19;;;;;;;7.13;2.20;;;17.50;68.10;;;;;;5002033;28;96617;-61
2021/11/21 10:35:03;;;;;;;6.70;2.20;;;17.50;66.40;;;;;;5017488;28;95924;-60
2021/11/21 10:37:39;;;;;;;5.85;1.40;;;17.40;68.40;;;;;;5018177;28;95264;-61
2021/11/21 10:40:19;;;;;;;8.55;2.20;;;17.40;68.70;;;;;;5019760;28;95184;-62
2021/11/21 10:42:51;;;;;;;9.85;2.75;;;17.40;69.00;;;;;;5019424;28;96442;-62
2021/11/21 10:45:27;;;;;;;7.05;2.60;;;17.40;69.30;;;;;;5019651;28;95838;-62
2021/11/21 10:48:01;;;;;;;6.60;1.63;;;17.40;69.40;;;;;;5020860;28;95010;-61
2021/11/21 10:50:37;;;;;;;8.80;2.08;;;17.40;69.20;;;;;;5021009;28;95236;-58
2021/11/21 10:53:12;;;;;;;6.70;2.13;;;17.30;69.40;;;;;;5020211;28;96079;-62
2021/11/21 10:55:44;;;;;;;8.35;1.70;;;17.30;69.50;;;;;;5019605;28;96037;-61
2021/11/21 10:58:22;;;;;;;5.97;2.00;;;17.20;69.40;;;;;;5001476;28;94979;-61
2021/11/21 11:00:59;;;;;;;4.68;1.92;;;17.20;69.70;;;;;;5020003;28;95121;-61
2021/11/21 11:03:32;;;;;;;6.82;2.72;;;17.10;70.00;;;;;;5019906;28;96377;-60
2021/11/21 11:06:27;;;;;;;4.65;2.00;;;17.10;70.10;;;;;;5019405;28;95800;-61
2021/11/21 11:09:26;;;;;;;5.80;2.10;;;17.00;70.10;;;;;;5018858;28;94982;-61
2021/11/21 11:11:57;;;;;;;9.68;2.80;;;17.00;70.30;;;;;;5019213;28;95282;-60
2021/11/21 11:14:31;;;;;;;4.45;2.20;;;17.00;70.60;;;;;;5018899;28;96266;-61
2021/11/21 11:17:03;;;;;;;6.78;1.95;;;17.00;70.80;;;;;;5018996;28;95798;-61
2021/11/21 11:19:39;;;;;;;4.18;1.80;;;16.90;70.80;;;;;;5019197;28;94906;-61
2021/11/21 11:22:23;;;;;;;5.90;1.65;;;16.90;71.00;;;;;;5002578;28;95114;-60
2021/11/21 11:25:20;;;;;;;6.90;2.00;;;16.80;71.10;;;;;;4997473;28;96332;-60
2021/11/21 11:28:15;;;;;;;;;;;16.80;71.10;;;;;;5018959;28;96380;-61
2021/11/21 11:30:50;;;;;;;7.55;1.88;;;16.80;70.10;;;;;;5020009;28;94914;-61
2021/11/21 11:33:35;;;;;;;8.25;2.08;;;16.70;71.10;;;;;;5019041;28;95290;-61
2021/11/21 11:36:22;;;;;;;6.68;1.88;;;16.70;71.70;;;;;;5014509;28;96381;-61
2021/11/21 11:39:14;;;;;;;5.72;1.20;;;16.60;71.70;;;;;;5016532;28;95855;-61
2021/11/21 11:42:21;;;;;;;6.82;1.98;;;16.60;71.70;;;;;;5019217;28;95001;-61
2021/11/21 11:44:53;;;;;;;;;;;16.60;72.00;;;;;;5019421;28;95309;-63
2021/11/21 11:47:28;;;;;;;;;;;16.50;72.30;;;;;;5020841;28;96353;-61
2021/11/21 11:50:00;;;;;;;3.75;1.50;;;16.50;72.70;;;;;;5003289;28;95870;-61
2021/11/21 11:52:55;;;;;;;6.22;1.58;;;16.50;72.90;;;;;;5001949;28;94996;-59
2021/11/21 11:55:28;;;;;;;10.93;2.03;;;16.50;72.80;;;;;;5019794;28;95356;-61
2021/11/21 11:58:01;;;;;;;8.88;1.55;;;16.50;72.60;;;;;;5020190;28;96438;-60
2021/11/21 12:00:37;;;;;;;4.85;1.35;;;16.50;72.90;;;;;;5000149;28;95889;-63
2021/11/21 12:03:39;;;;;;;6.10;2.05;;;16.50;73.30;;;;;;5009630;28;95609;-68
2021/11/21 12:06:15;;;;;;;5.07;1.85;;;16.60;73.20;;;;;;5005341;28;95781;-63
2021/11/21 12:09:05;;;;;;;4.63;1.42;;;16.60;73.30;;;;;;5005459;28;97101;-63
2021/11/21 12:11:59;;;;;;;7.13;2.13;;;16.70;73.30;;;;;;5007636;28;96024;-61
2021/11/21 12:14:42;;;;;;;7.18;1.80;;;16.70;73.10;;;;;;5009188;28;95370;-62
2021/11/21 12:17:19;;;;;;;5.75;2.00;;;16.80;73.20;;;;;;5006944;28;95697;-62
2021/11/21 12:19:57;;;;;;;3.63;1.63;;;16.90;72.90;;;;;;5006314;28;96193;-65
2021/11/21 12:22:32;;;;;;;4.75;1.88;;;17.00;73.10;;;;;;5003363;28;95785;-63
2021/11/21 12:28:08;;;;;;;4.82;1.52;;;17.10;72.50;;;;;;4983734;28;95559;-63
2021/11/21 12:30:40;;;;;;;4.90;1.73;;;17.10;72.20;;;;;;5008016;28;96102;-65
2021/11/21 12:33:27;;;;;;;2.38;1.13;;;17.10;71.90;;;;;;5005282;28;95869;-58
2021/11/21 12:35:59;;;;;;;3.35;1.30;;;17.10;73.90;;;;;;4992160;28;95913;-59
2021/11/21 12:38:35;;;;;;;5.07;1.27;;;17.40;73.70;;;;;;4999817;28;95590;-60
2021/11/21 12:41:08;;;;;;;5.53;1.85;;;17.70;72.90;;;;;;5005302;28;95905;-59
2021/11/21 12:43:39;;;;;;;4.05;1.42;;;17.90;72.40;;;;;;5005768;28;95605;-60
2021/11/21 12:46:12;;;;;;;5.05;1.48;;;17.90;71.60;;;;;;5006669;28;95785;-60
2021/11/21 12:48:45;;;;;;;5.85;1.35;;;18.00;71.30;;;;;;5001242;28;97574;-59
2021/11/21 12:51:17;;;;;;;3.72;1.15;;;18.00;71.10;;;;;;5005590;28;96048;-61
2021/11/21 12:53:50;;;;;;;;;;;18.00;71.00;;;;;;5004127;28;95821;-60
2021/11/21 12:56:24;;;;;;;2.50;1.30;;;18.10;70.70;;;;;;4985945;28;96341;-61
2021/11/21 12:58:56;;;;;;;4.88;1.75;;;18.10;70.50;;;;;;4987217;28;95890;-61
2021/11/21 13:01:30;;;;;;;3.55;1.90;;;18.10;70.40;;;;;;5014302;28;95638;-58
2021/11/21 13:04:03;;;;;;;4.25;1.20;;;18.10;70.20;;;;;;5002192;28;98666;-54
2021/11/21 13:06:36;;;;;;;3.67;1.20;;;18.10;70.30;;;;;;5004645;28;95730;-56
2021/11/21 13:09:09;;;;;;;4.03;1.33;;;18.30;70.20;;;;;;5000839;28;95745;-51
2021/11/21 13:11:40;;;;;;;4.55;1.65;;;18.30;70.00;;;;;;5005551;28;96380;-55
2021/11/21 13:14:12;;;;;;;4.95;1.65;;;18.40;70.00;;;;;;5004606;28;96115;-54
2021/11/21 13:16:43;;;;;;;4.72;1.55;;;18.50;68.30;;;;;;4984103;28;95251;-62
2021/11/21 13:19:15;;;;;;;3.03;1.52;;;18.40;69.50;;;;;;5013017;28;96103;-62
2021/11/21 13:21:46;;;;;;;3.88;1.27;;;18.30;69.50;;;;;;5001080;28;95885;-62
2021/11/21 13:24:18;;;;;;;3.35;1.23;;;18.30;69.70;;;;;;5005705;28;95800;-61
2021/11/21 13:26:50;;;;;;;4.95;1.80;;;18.20;69.80;;;;;;5006905;28;96107;-61
2021/11/21 13:29:22;;;;;;;3.50;1.77;;;18.20;69.90;;;;;;5001531;28;95880;-63
2021/11/21 13:32:00;;;;;;;2.60;1.50;;;18.10;69.90;;;;;;5005525;28;96009;-62
2021/11/21 13:34:32;;;;;;;6.57;1.63;;;18.10;69.90;;;;;;5004253;28;96184;-65